createdAt,value
2019-01-13T00:00:59.701Z,-6.33
2019-01-13T00:02:09.719Z,-6.39
2019-01-13T00:03:19.623Z,-6.39
2019-01-13T00:04:29.549Z,-6.31
2019-01-13T00:05:39.455Z,-6.46
2019-01-13T00:06:49.359Z,-6.48
2019-01-13T00:07:59.416Z,-6.45
2019-01-13T00:09:09.337Z,-6.49
2019-01-13T00:10:19.244Z,-6.44
2019-01-13T00:11:29.150Z,-6.51
2019-01-13T00:12:40.484Z,-6.49
2019-01-13T00:13:50.442Z,-6.34
2019-01-13T00:15:00.354Z,-6.33
2019-01-13T00:16:10.270Z,-6.31
2019-01-13T00:17:20.178Z,-6.2
2019-01-13T00:18:30.083Z,-6.18
2019-01-13T00:19:40.092Z,-6.13
2019-01-13T00:20:49.996Z,-6.03
2019-01-13T00:21:59.903Z,-5.95
2019-01-13T00:23:09.807Z,-5.89
2019-01-13T00:24:19.715Z,-5.89
2019-01-13T00:25:29.771Z,-5.92
2019-01-13T00:26:39.737Z,-5.82
2019-01-13T00:27:49.651Z,-5.85
2019-01-13T00:28:59.559Z,-5.91
2019-01-13T00:30:09.469Z,-5.82
2019-01-13T00:31:26.742Z,-5.84
2019-01-13T00:32:36.651Z,-5.77
2019-01-13T00:33:46.575Z,-5.92
2019-01-13T00:34:56.478Z,-5.92
2019-01-13T00:36:06.146Z,-5.91
2019-01-13T00:37:16.165Z,-5.89
2019-01-13T00:38:26.086Z,-5.91
2019-01-13T00:39:35.996Z,-5.94
2019-01-13T00:40:45.907Z,-5.88
2019-01-13T00:41:55.819Z,-5.74
2019-01-13T00:43:05.830Z,-5.71
2019-01-13T00:44:15.749Z,-5.82
2019-01-13T00:45:25.664Z,-5.81
2019-01-13T00:46:35.602Z,-5.82
2019-01-13T00:47:45.512Z,-5.82
2019-01-13T00:48:55.272Z,-5.77
2019-01-13T00:50:05.184Z,-5.84
2019-01-13T00:51:15.146Z,-5.87
2019-01-13T00:52:25.102Z,-5.84
2019-01-13T00:53:35.062Z,-5.78
2019-01-13T00:54:45.071Z,-5.82
2019-01-13T00:55:54.982Z,-5.81
2019-01-13T00:57:04.891Z,-5.84
2019-01-13T00:58:14.800Z,-5.7
2019-01-13T00:59:24.703Z,-5.74
2019-01-13T01:00:34.669Z,-5.74
2019-01-13T01:01:46.081Z,-5.73
2019-01-13T01:02:55.995Z,-5.71
2019-01-13T01:04:05.906Z,-5.67
2019-01-13T01:05:15.816Z,-5.59
2019-01-13T01:06:25.833Z,-5.53
2019-01-13T01:07:35.739Z,-5.53
2019-01-13T01:08:45.646Z,-5.59
2019-01-13T01:09:55.555Z,-5.46
2019-01-13T01:11:05.463Z,-5.5
2019-01-13T01:12:15.475Z,-5.5
2019-01-13T01:13:25.389Z,-5.46
2019-01-13T01:14:35.301Z,-5.59
2019-01-13T01:15:45.216Z,-5.63
2019-01-13T01:16:55.124Z,-5.56
2019-01-13T01:18:05.135Z,-5.6
2019-01-13T01:19:15.046Z,-5.53
2019-01-13T01:20:24.956Z,-5.56
2019-01-13T01:21:34.866Z,-5.59
2019-01-13T01:22:44.775Z,-5.59
2019-01-13T01:23:54.732Z,-5.64
2019-01-13T01:25:04.701Z,-5.71
2019-01-13T01:26:14.610Z,-5.7
2019-01-13T01:27:24.528Z,-5.73
2019-01-13T01:28:34.447Z,-5.68
2019-01-13T01:29:44.403Z,-5.7
2019-01-13T01:30:54.312Z,-5.81
2019-01-13T01:32:04.219Z,-5.77
2019-01-13T01:33:14.129Z,-5.78
2019-01-13T01:34:32.252Z,-5.77
2019-01-13T01:35:42.216Z,-5.82
2019-01-13T01:36:52.126Z,-5.78
2019-01-13T01:38:02.065Z,-5.81
2019-01-13T01:39:11.978Z,-5.81
2019-01-13T01:40:21.641Z,-5.77
2019-01-13T01:41:31.648Z,-5.68
2019-01-13T01:42:41.560Z,-5.67
2019-01-13T01:43:51.485Z,-5.66
2019-01-13T01:45:01.393Z,-5.68
2019-01-13T01:46:11.307Z,-5.68
2019-01-13T01:47:21.352Z,-5.71
2019-01-13T01:48:31.274Z,-5.76
2019-01-13T01:49:41.188Z,-5.81
2019-01-13T01:50:51.101Z,-5.82
2019-01-13T01:52:01.009Z,-5.81
2019-01-13T01:53:11.021Z,-5.78
2019-01-13T01:54:20.682Z,-5.71
2019-01-13T01:55:30.645Z,-5.68
2019-01-13T01:56:40.552Z,-5.7
2019-01-13T01:57:50.470Z,-5.67
2019-01-13T01:59:00.482Z,-5.81
2019-01-13T02:00:10.392Z,-5.73
2019-01-13T02:01:20.303Z,-5.7
2019-01-13T02:02:30.219Z,-5.66
2019-01-13T02:03:40.139Z,-5.63
2019-01-13T02:04:50.295Z,-5.6
2019-01-13T02:06:00.329Z,-5.58
2019-01-13T02:07:10.349Z,-5.5
2019-01-13T02:08:20.403Z,-5.5
2019-01-13T02:09:30.348Z,-5.55
2019-01-13T02:10:40.416Z,-5.45
2019-01-13T02:11:50.333Z,-5.56
2019-01-13T02:13:00.248Z,-5.53
2019-01-13T02:14:10.170Z,-5.5
2019-01-13T02:15:20.078Z,-5.5
2019-01-13T02:16:30.022Z,-5.41
2019-01-13T02:17:39.926Z,-5.34
2019-01-13T02:18:49.838Z,-5.41
2019-01-13T02:19:59.750Z,-5.32
2019-01-13T02:21:09.660Z,-5.3
2019-01-13T02:22:19.741Z,-5.25
2019-01-13T02:23:29.650Z,-5.31
2019-01-13T02:24:39.560Z,-5.35
2019-01-13T02:25:49.522Z,-5.28
2019-01-13T02:26:59.436Z,-5.39
2019-01-13T02:28:09.494Z,-5.43
2019-01-13T02:29:19.405Z,-5.39
2019-01-13T02:30:29.346Z,-5.5
2019-01-13T02:31:39.261Z,-5.48
2019-01-13T02:32:49.186Z,-5.55
2019-01-13T02:33:59.212Z,-5.55
2019-01-13T02:35:08.894Z,-5.45
2019-01-13T02:36:18.814Z,-5.53
2019-01-13T02:37:28.737Z,-5.59
2019-01-13T02:38:38.644Z,-5.48
2019-01-13T02:39:48.554Z,-5.56
2019-01-13T02:40:58.488Z,-5.59
2019-01-13T02:42:08.422Z,-5.59
2019-01-13T02:43:18.340Z,-5.58
2019-01-13T02:44:28.267Z,-5.6
2019-01-13T02:45:38.302Z,-5.68
2019-01-13T02:46:48.223Z,-5.59
2019-01-13T02:47:58.132Z,-5.64
2019-01-13T02:49:08.051Z,-5.68
2019-01-13T02:50:17.966Z,-5.71
2019-01-13T02:51:28.360Z,-5.73
2019-01-13T02:52:38.157Z,-5.66
2019-01-13T02:53:48.068Z,-5.73
2019-01-13T02:54:57.729Z,-5.64
2019-01-13T02:56:07.793Z,-5.74
2019-01-13T02:57:17.809Z,-5.73
2019-01-13T02:58:27.719Z,-5.68
2019-01-13T02:59:37.675Z,-5.64
2019-01-13T03:00:47.589Z,-5.52
2019-01-13T03:02:04.509Z,-5.48
2019-01-13T03:03:14.423Z,-5.46
2019-01-13T03:04:24.341Z,-5.43
2019-01-13T03:05:34.013Z,-5.41
2019-01-13T03:06:43.925Z,-5.25
2019-01-13T03:07:53.850Z,-5.25
2019-01-13T03:09:03.842Z,-5.16
2019-01-13T03:10:13.757Z,-5.2
2019-01-13T03:11:23.686Z,-5.13
2019-01-13T03:12:33.612Z,-5.06
2019-01-13T03:13:43.525Z,-5.16
2019-01-13T03:14:53.584Z,-5.13
2019-01-13T03:16:03.501Z,-5.02
2019-01-13T03:17:13.441Z,-5.02
2019-01-13T03:18:23.363Z,-5.01
2019-01-13T03:19:33.285Z,-4.92
2019-01-13T03:20:43.312Z,-4.95
2019-01-13T03:21:53.236Z,-5.05
2019-01-13T03:23:03.167Z,-4.97
2019-01-13T03:24:13.106Z,-4.95
2019-01-13T03:25:22.797Z,-4.97
2019-01-13T03:26:32.818Z,-5
2019-01-13T03:27:42.737Z,-5.12
2019-01-13T03:28:52.657Z,-5.12
2019-01-13T03:30:02.609Z,-5.06
2019-01-13T03:31:17.244Z,-5.16
2019-01-13T03:32:27.366Z,-5.19
2019-01-13T03:33:37.307Z,-5.28
2019-01-13T03:34:47.233Z,-5.25
2019-01-13T03:35:57.147Z,-5.23
2019-01-13T03:37:07.150Z,-5.28
2019-01-13T03:38:16.919Z,-5.3
2019-01-13T03:39:26.835Z,-5.32
2019-01-13T03:40:36.755Z,-5.38
2019-01-13T03:41:46.663Z,-5.39
2019-01-13T03:42:56.612Z,-5.45
2019-01-13T03:44:06.665Z,-5.46
2019-01-13T03:45:16.587Z,-5.48
2019-01-13T03:46:26.515Z,-5.39
2019-01-13T03:47:36.474Z,-5.53
2019-01-13T03:48:46.392Z,-5.39
2019-01-13T03:49:56.375Z,-5.38
2019-01-13T03:51:06.286Z,-5.31
2019-01-13T03:52:16.197Z,-5.23
2019-01-13T03:53:26.125Z,-5.31
2019-01-13T03:54:36.039Z,-5.13
2019-01-13T03:55:46.053Z,-5.1
2019-01-13T03:56:55.975Z,-5.1
2019-01-13T03:58:05.897Z,-5.1
2019-01-13T03:59:16.459Z,-5.12
2019-01-13T04:00:26.378Z,-5.2
2019-01-13T04:01:36.348Z,-5.2
2019-01-13T04:02:46.258Z,-5.28
2019-01-13T04:03:56.186Z,-5.31
2019-01-13T04:05:06.097Z,-5.39
2019-01-13T04:06:16.009Z,-5.34
2019-01-13T04:07:25.987Z,-5.41
2019-01-13T04:08:35.666Z,-5.39
2019-01-13T04:09:45.580Z,-5.46
2019-01-13T04:10:55.502Z,-5.48
2019-01-13T04:12:05.419Z,-5.41
2019-01-13T04:13:15.386Z,-5.39
2019-01-13T04:14:25.297Z,-5.43
2019-01-13T04:15:34.958Z,-5.37
2019-01-13T04:16:44.877Z,-5.38
2019-01-13T04:17:54.792Z,-5.41
2019-01-13T04:19:04.755Z,-5.41
2019-01-13T04:20:14.669Z,-5.38
2019-01-13T04:21:24.594Z,-5.43
2019-01-13T04:22:34.520Z,-5.3
2019-01-13T04:23:44.448Z,-5.25
2019-01-13T04:24:54.468Z,-5.27
2019-01-13T04:26:04.378Z,-5.21
2019-01-13T04:27:14.287Z,-5.38
2019-01-13T04:28:24.206Z,-5.28
2019-01-13T04:29:34.116Z,-5.28
2019-01-13T04:30:44.080Z,-5.23
2019-01-13T04:31:53.994Z,-5.28
2019-01-13T04:33:03.918Z,-5.3
2019-01-13T04:34:13.835Z,-5.34
2019-01-13T04:35:23.760Z,-5.37
2019-01-13T04:36:33.750Z,-5.39
2019-01-13T04:37:43.670Z,-5.32
2019-01-13T04:38:53.584Z,-5.45
2019-01-13T04:40:03.504Z,-5.41
2019-01-13T04:41:13.429Z,-5.43
2019-01-13T04:42:23.394Z,-5.37
2019-01-13T04:43:33.305Z,-5.41
2019-01-13T04:44:43.216Z,-5.48
2019-01-13T04:45:53.139Z,-5.46
2019-01-13T04:47:03.060Z,-5.52
2019-01-13T04:48:13.092Z,-5.52
2019-01-13T04:49:23.043Z,-5.52
2019-01-13T04:50:32.962Z,-5.49
2019-01-13T04:51:42.900Z,-5.45
2019-01-13T04:52:52.821Z,-5.43
2019-01-13T04:54:02.780Z,-5.32
2019-01-13T04:55:12.694Z,-5.39
2019-01-13T04:56:22.613Z,-5.39
2019-01-13T04:57:32.534Z,-5.45
2019-01-13T04:58:42.462Z,-5.48
2019-01-13T04:59:52.487Z,-5.45
2019-01-13T05:01:02.413Z,-5.43
2019-01-13T05:02:12.350Z,-5.46
2019-01-13T05:03:22.277Z,-5.45
2019-01-13T05:04:32.250Z,-5.39
2019-01-13T05:05:42.170Z,-5.38
2019-01-13T05:06:52.083Z,-5.45
2019-01-13T05:08:01.997Z,-5.45
2019-01-13T05:09:11.919Z,-5.46
2019-01-13T05:10:21.867Z,-5.34
2019-01-13T05:11:31.884Z,-5.34
2019-01-13T05:12:41.797Z,-5.34
2019-01-13T05:13:51.715Z,-5.34
2019-01-13T05:15:01.630Z,-5.39
2019-01-13T05:16:11.562Z,-5.3
2019-01-13T05:17:21.572Z,-5.38
2019-01-13T05:18:31.483Z,-5.32
2019-01-13T05:19:41.400Z,-5.31
2019-01-13T05:20:51.311Z,-5.43
2019-01-13T05:22:01.231Z,-5.38
2019-01-13T05:23:11.032Z,-5.39
2019-01-13T05:24:20.951Z,-5.38
2019-01-13T05:25:30.870Z,-5.39
2019-01-13T05:26:40.783Z,-5.37
2019-01-13T05:27:50.706Z,-5.38
2019-01-13T05:29:00.667Z,-5.45
2019-01-13T05:30:10.575Z,-5.38
2019-01-13T05:31:20.497Z,-5.37
2019-01-13T05:32:30.416Z,-5.43
2019-01-13T05:33:40.328Z,-5.49
2019-01-13T05:34:50.339Z,-5.43
2019-01-13T05:36:00.253Z,-5.39
2019-01-13T05:37:10.176Z,-5.35
2019-01-13T05:38:20.088Z,-5.39
2019-01-13T05:39:30.001Z,-5.46
2019-01-13T05:40:40.016Z,-5.41
2019-01-13T05:41:49.932Z,-5.48
2019-01-13T05:42:59.851Z,-5.38
2019-01-13T05:44:09.771Z,-5.45
2019-01-13T05:45:19.695Z,-5.39
2019-01-13T05:46:29.709Z,-5.49
2019-01-13T05:47:39.624Z,-5.43
2019-01-13T05:48:49.547Z,-5.48
2019-01-13T05:49:59.462Z,-5.49
2019-01-13T05:51:09.374Z,-5.5
2019-01-13T05:52:19.286Z,-5.53
2019-01-13T05:53:29.197Z,-5.55
2019-01-13T05:54:39.113Z,-5.45
2019-01-13T05:55:49.023Z,-5.46
2019-01-13T05:56:58.938Z,-5.5
2019-01-13T05:58:08.945Z,-5.55
2019-01-13T05:59:18.882Z,-5.52
2019-01-13T06:00:28.789Z,-5.53
2019-01-13T06:01:38.911Z,-5.5
2019-01-13T06:02:54.469Z,-5.56
2019-01-13T06:04:04.487Z,-5.5
2019-01-13T06:05:14.396Z,-5.48
2019-01-13T06:06:24.318Z,-5.5
2019-01-13T06:07:34.235Z,-5.43
2019-01-13T06:08:44.151Z,-5.52
2019-01-13T06:09:54.111Z,-5.5
2019-01-13T06:11:04.031Z,-5.41
2019-01-13T06:12:13.943Z,-5.56
2019-01-13T06:13:23.857Z,-5.53
2019-01-13T06:14:33.763Z,-5.41
2019-01-13T06:15:43.674Z,-5.52
2019-01-13T06:16:53.588Z,-5.41
2019-01-13T06:18:03.502Z,-5.45
2019-01-13T06:19:13.417Z,-5.45
2019-01-13T06:20:23.335Z,-5.43
2019-01-13T06:21:33.300Z,-5.39
2019-01-13T06:22:43.206Z,-5.43
2019-01-13T06:23:53.120Z,-5.38
2019-01-13T06:25:03.037Z,-5.46
2019-01-13T06:26:12.978Z,-5.45
2019-01-13T06:27:22.890Z,-5.31
2019-01-13T06:28:32.548Z,-5.31
2019-01-13T06:29:42.461Z,-5.35
2019-01-13T06:30:52.374Z,-5.34
2019-01-13T06:32:02.285Z,-5.39
2019-01-13T06:33:12.312Z,-5.38
2019-01-13T06:34:22.226Z,-5.34
2019-01-13T06:35:32.139Z,-5.37
2019-01-13T06:36:41.807Z,-5.3
2019-01-13T06:37:51.718Z,-5.41
2019-01-13T06:39:01.725Z,-5.39
2019-01-13T06:40:11.637Z,-5.41
2019-01-13T06:41:21.586Z,-5.41
2019-01-13T06:42:31.500Z,-5.32
2019-01-13T06:43:41.410Z,-5.34
2019-01-13T06:44:51.419Z,-5.35
2019-01-13T06:46:01.326Z,-5.28
2019-01-13T06:47:11.236Z,-5.32
2019-01-13T06:48:21.143Z,-5.28
2019-01-13T06:49:31.062Z,-5.31
2019-01-13T06:50:41.019Z,-5.27
2019-01-13T06:51:50.934Z,-5.3
2019-01-13T06:53:00.850Z,-5.25
2019-01-13T06:54:10.760Z,-5.28
2019-01-13T06:55:20.668Z,-5.25
2019-01-13T06:56:30.688Z,-5.28
2019-01-13T06:57:40.599Z,-5.27
2019-01-13T06:58:50.265Z,-5.13
2019-01-13T07:00:00.250Z,-5.16
2019-01-13T07:01:10.178Z,-5.2
2019-01-13T07:02:20.098Z,-5.2
2019-01-13T07:03:30.015Z,-5.3
2019-01-13T07:04:39.927Z,-5.28
2019-01-13T07:05:49.837Z,-5.28
2019-01-13T07:06:59.744Z,-5.2
2019-01-13T07:08:09.721Z,-5.08
2019-01-13T07:09:19.637Z,-4.97
2019-01-13T07:10:29.549Z,-4.92
2019-01-13T07:11:39.504Z,-4.94
2019-01-13T07:12:49.416Z,-4.95
2019-01-13T07:13:59.376Z,-5.02
2019-01-13T07:15:09.287Z,-4.97
2019-01-13T07:16:19.249Z,-4.95
2019-01-13T07:17:29.161Z,-4.92
2019-01-13T07:18:39.070Z,-4.91
2019-01-13T07:19:49.091Z,-5
2019-01-13T07:20:59.003Z,-4.9
2019-01-13T07:22:08.921Z,-4.9
2019-01-13T07:23:18.831Z,-4.91
2019-01-13T07:24:28.769Z,-4.95
2019-01-13T07:25:38.742Z,-4.98
2019-01-13T07:26:48.650Z,-4.95
2019-01-13T07:27:58.558Z,-5.01
2019-01-13T07:29:08.468Z,-5.01
2019-01-13T07:30:18.379Z,-4.97
2019-01-13T07:31:30.003Z,-4.9
2019-01-13T07:32:39.672Z,-4.83
2019-01-13T07:33:49.616Z,-4.87
2019-01-13T07:34:59.532Z,-4.71
2019-01-13T07:36:09.449Z,-4.7
2019-01-13T07:37:19.462Z,-4.61
2019-01-13T07:38:29.413Z,-4.56
2019-01-13T07:39:39.071Z,-4.47
2019-01-13T07:40:48.984Z,-4.45
2019-01-13T07:41:58.893Z,-4.51
2019-01-13T07:43:08.906Z,-4.55
2019-01-13T07:44:20.033Z,-4.58
2019-01-13T07:45:29.965Z,-4.52
2019-01-13T07:46:39.878Z,-4.52
2019-01-13T07:47:49.800Z,-4.42
2019-01-13T07:48:59.765Z,-4.26
2019-01-13T07:50:09.680Z,-4.31
2019-01-13T07:51:19.592Z,-4.19
2019-01-13T07:52:29.504Z,-4.14
2019-01-13T07:53:39.416Z,-4.06
2019-01-13T07:54:49.374Z,-4.01
2019-01-13T07:55:59.293Z,-4.2
2019-01-13T07:57:09.201Z,-4.22
2019-01-13T07:58:19.108Z,-4.37
2019-01-13T07:59:29.023Z,-4.31
2019-01-13T08:00:38.985Z,-4.45
2019-01-13T08:01:48.896Z,-4.52
2019-01-13T08:02:58.807Z,-4.67
2019-01-13T08:04:08.718Z,-4.71
2019-01-13T08:05:18.633Z,-4.79
2019-01-13T08:06:28.595Z,-4.87
2019-01-13T08:07:38.507Z,-4.9
2019-01-13T08:08:48.415Z,-4.91
2019-01-13T08:09:58.327Z,-4.88
2019-01-13T08:11:08.233Z,-4.98
2019-01-13T08:12:18.205Z,-4.97
2019-01-13T08:13:28.448Z,-5
2019-01-13T08:14:38.365Z,-5.12
2019-01-13T08:15:48.025Z,-5.1
2019-01-13T08:16:57.939Z,-5.12
2019-01-13T08:18:07.951Z,-5.13
2019-01-13T08:19:17.864Z,-5.12
2019-01-13T08:20:27.773Z,-5.12
2019-01-13T08:21:37.691Z,-5.08
2019-01-13T08:22:47.598Z,-5.1
2019-01-13T08:23:57.608Z,-5.1
2019-01-13T08:25:07.521Z,-5.02
2019-01-13T08:26:17.438Z,-5.08
2019-01-13T08:27:27.351Z,-5
2019-01-13T08:28:37.263Z,-4.9
2019-01-13T08:29:47.175Z,-4.76
2019-01-13T08:30:57.089Z,-4.76
2019-01-13T08:32:07.002Z,-4.74
2019-01-13T08:33:16.929Z,-4.56
2019-01-13T08:34:26.848Z,-4.41
2019-01-13T08:35:36.857Z,-4.42
2019-01-13T08:36:46.776Z,-4.38
2019-01-13T08:37:56.683Z,-4.38
2019-01-13T08:39:06.593Z,-4.24
2019-01-13T08:40:16.508Z,-4.2
2019-01-13T08:41:26.516Z,-4.33
2019-01-13T08:42:36.427Z,-4.27
2019-01-13T08:43:46.336Z,-4.27
2019-01-13T08:44:56.303Z,-4.3
2019-01-13T08:46:06.219Z,-4.26
2019-01-13T08:47:16.250Z,-4.3
2019-01-13T08:48:26.224Z,-4.22
2019-01-13T08:49:36.551Z,-4.31
2019-01-13T08:50:46.482Z,-4.3
2019-01-13T08:51:56.394Z,-4.4
2019-01-13T08:53:06.409Z,-4.42
2019-01-13T08:54:16.326Z,-4.4
2019-01-13T08:55:26.242Z,-4.42
2019-01-13T08:56:36.160Z,-4.42
2019-01-13T08:57:46.141Z,-4.37
2019-01-13T08:58:56.138Z,-4.49
2019-01-13T09:00:06.061Z,-4.55
2019-01-13T09:01:15.972Z,-4.45
2019-01-13T09:02:32.014Z,-4.62
2019-01-13T09:03:42.238Z,-4.59
2019-01-13T09:04:52.203Z,-4.61
2019-01-13T09:06:02.121Z,-4.62
2019-01-13T09:07:12.041Z,-4.53
2019-01-13T09:08:21.954Z,-4.55
2019-01-13T09:09:32.662Z,-4.58
2019-01-13T09:10:42.689Z,-4.59
2019-01-13T09:11:52.344Z,-4.7
2019-01-13T09:13:02.257Z,-4.7
2019-01-13T09:14:12.180Z,-4.77
2019-01-13T09:15:22.105Z,-4.67
2019-01-13T09:16:32.130Z,-4.67
2019-01-13T09:17:42.039Z,-4.63
2019-01-13T09:18:51.952Z,-4.53
2019-01-13T09:20:01.935Z,-4.58
2019-01-13T09:21:11.853Z,-4.62
2019-01-13T09:22:22.867Z,-4.7
2019-01-13T09:23:32.774Z,-4.7
2019-01-13T09:24:42.684Z,-4.69
2019-01-13T09:25:52.591Z,-4.69
2019-01-13T09:27:02.515Z,-4.65
2019-01-13T09:28:12.532Z,-4.65
2019-01-13T09:29:22.441Z,-4.49
2019-01-13T09:30:32.350Z,-4.59
2019-01-13T09:31:42.262Z,-4.58
2019-01-13T09:32:52.190Z,-4.56
2019-01-13T09:34:01.846Z,-4.56
2019-01-13T09:35:11.755Z,-4.56
2019-01-13T09:36:21.475Z,-4.51
2019-01-13T09:37:31.386Z,-4.51
2019-01-13T09:38:41.296Z,-4.58
2019-01-13T09:39:51.212Z,-4.53
2019-01-13T09:41:01.124Z,-4.41
2019-01-13T09:42:11.036Z,-4.44
2019-01-13T09:43:20.949Z,-4.44
2019-01-13T09:44:30.861Z,-4.41
2019-01-13T09:45:40.770Z,-4.44
2019-01-13T09:46:50.683Z,-4.56
2019-01-13T09:48:00.594Z,-4.53
2019-01-13T09:49:10.504Z,-4.45
2019-01-13T09:50:20.416Z,-4.55
2019-01-13T09:51:30.328Z,-4.56
2019-01-13T09:52:40.238Z,-4.61
2019-01-13T09:53:50.154Z,-4.81
2019-01-13T09:55:00.091Z,-4.92
2019-01-13T09:56:09.825Z,-4.9
2019-01-13T09:57:19.743Z,-4.95
2019-01-13T09:58:29.654Z,-4.88
2019-01-13T09:59:39.567Z,-4.95
2019-01-13T10:00:49.229Z,-4.97
2019-01-13T10:01:59.157Z,-5.08
2019-01-13T10:03:09.174Z,-5.12
2019-01-13T10:04:19.109Z,-5.1
2019-01-13T10:05:29.023Z,-5.12
2019-01-13T10:06:38.681Z,-5.1
2019-01-13T10:07:48.591Z,-5.12
2019-01-13T10:08:58.552Z,-5.1
2019-01-13T10:10:08.469Z,-5.2
2019-01-13T10:11:18.394Z,-5.17
2019-01-13T10:12:28.304Z,-5.2
2019-01-13T10:13:38.215Z,-5.19
2019-01-13T10:14:48.234Z,-5.23
2019-01-13T10:15:58.145Z,-5.17
2019-01-13T10:17:08.075Z,-5.2
2019-01-13T10:18:17.991Z,-5.21
2019-01-13T10:19:27.899Z,-5.19
2019-01-13T10:20:38.903Z,-5.2
2019-01-13T10:21:48.823Z,-5.17
2019-01-13T10:22:58.759Z,-5.13
2019-01-13T10:24:08.671Z,-5.17
2019-01-13T10:25:18.589Z,-5.17
2019-01-13T10:26:28.612Z,-5.17
2019-01-13T10:27:38.526Z,-5.12
2019-01-13T10:28:48.436Z,-5.2
2019-01-13T10:29:58.345Z,-5.1
2019-01-13T10:31:08.278Z,-5.17
2019-01-13T10:32:18.289Z,-5.23
2019-01-13T10:33:28.204Z,-5.23
2019-01-13T10:34:38.124Z,-5.13
2019-01-13T10:35:48.039Z,-5.13
2019-01-13T10:36:57.986Z,-5.13
2019-01-13T10:38:07.956Z,-5.12
2019-01-13T10:39:17.867Z,-5.27
2019-01-13T10:40:27.784Z,-5.19
2019-01-13T10:41:37.697Z,-5.16
2019-01-13T10:42:47.606Z,-5.16
2019-01-13T10:43:57.518Z,-5.1
2019-01-13T10:45:07.430Z,-5.12
2019-01-13T10:46:17.354Z,-5.13
2019-01-13T10:47:27.266Z,-5.21
2019-01-13T10:48:37.174Z,-5.13
2019-01-13T10:49:47.182Z,-5.12
2019-01-13T10:50:57.094Z,-5.1
2019-01-13T10:52:07.004Z,-5.08
2019-01-13T10:53:16.925Z,-5.1
2019-01-13T10:54:26.840Z,-5.09
2019-01-13T10:55:36.755Z,-5.06
2019-01-13T10:56:46.683Z,-5.12
2019-01-13T10:57:56.350Z,-5.16
2019-01-13T10:59:06.279Z,-5.09
2019-01-13T11:00:16.190Z,-5.08
2019-01-13T11:01:25.950Z,-5.08
2019-01-13T11:02:35.755Z,-5.1
2019-01-13T11:03:45.667Z,-5.13
2019-01-13T11:04:55.594Z,-5.19
2019-01-13T11:06:05.574Z,-5.2
2019-01-13T11:07:15.235Z,-5.09
2019-01-13T11:08:25.144Z,-5.16
2019-01-13T11:09:35.064Z,-5.08
2019-01-13T11:10:44.978Z,-5
2019-01-13T11:11:54.892Z,-5.12
2019-01-13T11:13:04.653Z,-5.05
2019-01-13T11:14:14.571Z,-5.08
2019-01-13T11:15:26.732Z,-5.09
2019-01-13T11:16:36.646Z,-5.19
2019-01-13T11:17:46.555Z,-5.2
2019-01-13T11:18:57.424Z,-5.28
2019-01-13T11:20:07.415Z,-5.27
2019-01-13T11:21:17.331Z,-5.31
2019-01-13T11:22:27.242Z,-5.27
2019-01-13T11:23:36.897Z,-5.23
2019-01-13T11:24:46.911Z,-5.23
2019-01-13T11:25:56.824Z,-5.35
2019-01-13T11:27:06.544Z,-5.31
2019-01-13T11:28:16.459Z,-5.34
2019-01-13T11:29:32.503Z,-5.38
2019-01-13T11:30:42.729Z,-5.38
2019-01-13T11:31:52.676Z,-5.32
2019-01-13T11:33:09.059Z,-5.43
2019-01-13T11:34:19.304Z,-5.43
2019-01-13T11:35:29.217Z,-5.39
2019-01-13T11:36:39.128Z,-5.38
2019-01-13T11:37:49.046Z,-5.35
2019-01-13T11:38:58.956Z,-5.41
2019-01-13T11:40:08.919Z,-5.45
2019-01-13T11:41:18.577Z,-5.39
2019-01-13T11:42:28.484Z,-5.41
2019-01-13T11:43:38.398Z,-5.46
2019-01-13T11:44:48.309Z,-5.41
2019-01-13T11:45:57.965Z,-5.41
2019-01-13T11:47:07.879Z,-5.39
2019-01-13T11:48:17.797Z,-5.41
2019-01-13T11:49:27.712Z,-5.32
2019-01-13T11:50:37.685Z,-5.38
2019-01-13T11:51:47.608Z,-5.25
2019-01-13T11:52:57.528Z,-5.2
2019-01-13T11:54:07.542Z,-5.16
2019-01-13T11:55:17.448Z,-4.95
2019-01-13T11:56:27.366Z,-4.95
2019-01-13T11:57:37.279Z,-4.8
2019-01-13T11:58:47.189Z,-4.62
2019-01-13T11:59:57.208Z,-4.45
2019-01-13T12:01:07.122Z,-4.17
2019-01-13T12:02:17.037Z,-3.87
2019-01-13T12:03:26.951Z,-3.59
2019-01-13T12:04:36.613Z,-3.36
2019-01-13T12:05:46.643Z,-3.3
2019-01-13T12:06:56.555Z,-3.22
2019-01-13T12:08:06.464Z,-3.11
2019-01-13T12:09:16.378Z,-3.08
2019-01-13T12:10:26.293Z,-3.01
2019-01-13T12:11:36.208Z,-2.86
2019-01-13T12:12:46.133Z,-2.72
2019-01-13T12:13:56.054Z,-2.84
2019-01-13T12:15:05.725Z,-2.9
2019-01-13T12:16:15.635Z,-3.12
2019-01-13T12:17:25.556Z,-3.17
2019-01-13T12:18:42.807Z,-3.12
2019-01-13T12:19:52.721Z,-3.37
2019-01-13T12:21:02.697Z,-3.41
2019-01-13T12:22:12.609Z,-3.62
2019-01-13T12:23:22.617Z,-3.58
2019-01-13T12:24:32.530Z,-3.62
2019-01-13T12:25:42.450Z,-3.68
2019-01-13T12:26:57.933Z,-3.69
2019-01-13T12:28:07.846Z,-3.74
2019-01-13T12:29:17.830Z,-3.85
2019-01-13T12:30:27.743Z,-3.81
2019-01-13T12:31:37.670Z,-3.87
2019-01-13T12:32:47.582Z,-3.99
2019-01-13T12:33:57.500Z,-4.19
2019-01-13T12:35:07.569Z,-4.2
2019-01-13T12:36:17.235Z,-4.41
2019-01-13T12:37:27.147Z,-4.53
2019-01-13T12:38:37.062Z,-4.52
2019-01-13T12:39:48.632Z,-4.55
2019-01-13T12:41:00.132Z,-4.61
2019-01-13T12:42:10.125Z,-4.67
2019-01-13T12:43:20.037Z,-4.7
2019-01-13T12:44:30.002Z,-4.8
2019-01-13T12:45:39.909Z,-4.88
2019-01-13T12:46:49.729Z,-4.91
2019-01-13T12:47:59.643Z,-5.02
2019-01-13T12:49:09.298Z,-5.05
2019-01-13T12:50:19.205Z,-5.13
2019-01-13T12:51:29.118Z,-5.19
2019-01-13T12:52:39.179Z,-5.12
2019-01-13T12:53:49.098Z,-5.16
2019-01-13T12:54:59.007Z,-5.13
2019-01-13T12:56:08.996Z,-5.1
2019-01-13T12:57:18.901Z,-5.17
2019-01-13T12:58:28.915Z,-5.2
2019-01-13T12:59:38.830Z,-5.19
2019-01-13T13:00:48.742Z,-5.3
2019-01-13T13:01:58.710Z,-5.25
2019-01-13T13:03:08.623Z,-5.27
2019-01-13T13:04:18.546Z,-5.23
2019-01-13T13:05:28.459Z,-5.27
2019-01-13T13:06:38.372Z,-5.28
2019-01-13T13:07:48.286Z,-5.2
2019-01-13T13:08:58.199Z,-5.16
2019-01-13T13:10:08.114Z,-5.1
2019-01-13T13:11:18.019Z,-5
2019-01-13T13:12:27.926Z,-4.94
2019-01-13T13:13:37.844Z,-4.94
2019-01-13T13:14:47.757Z,-5.01
2019-01-13T13:15:57.769Z,-4.94
2019-01-13T13:17:07.679Z,-4.91
2019-01-13T13:18:17.586Z,-4.87
2019-01-13T13:19:27.492Z,-4.83
2019-01-13T13:20:37.396Z,-4.92
2019-01-13T13:21:47.302Z,-4.87
2019-01-13T13:22:57.206Z,-4.88
2019-01-13T13:24:07.111Z,-4.9
2019-01-13T13:25:17.019Z,-5.01
2019-01-13T13:26:26.934Z,-4.98
2019-01-13T13:27:36.942Z,-4.95
2019-01-13T13:28:46.858Z,-5.02
2019-01-13T13:29:56.774Z,-5.02
2019-01-13T13:31:06.756Z,-5.05
2019-01-13T13:32:16.668Z,-4.9
2019-01-13T13:33:26.576Z,-4.91
2019-01-13T13:34:36.482Z,-4.92
2019-01-13T13:35:46.392Z,-4.97
2019-01-13T13:36:56.335Z,-4.91
2019-01-13T13:38:06.245Z,-4.95
2019-01-13T13:39:16.192Z,-4.91
2019-01-13T13:40:26.689Z,-4.91
2019-01-13T13:41:36.613Z,-4.94
2019-01-13T13:42:46.525Z,-4.9
2019-01-13T13:43:56.436Z,-4.98
2019-01-13T13:45:06.397Z,-4.94
2019-01-13T13:46:16.308Z,-5.02
2019-01-13T13:47:26.259Z,-5
2019-01-13T13:48:36.169Z,-4.94
2019-01-13T13:49:46.078Z,-4.92
2019-01-13T13:50:55.984Z,-4.74
2019-01-13T13:52:05.891Z,-4.55
2019-01-13T13:53:15.805Z,-4.31
2019-01-13T13:54:25.715Z,-4.31
2019-01-13T13:55:35.624Z,-4.22
2019-01-13T13:56:45.540Z,-4.31
2019-01-13T13:57:55.455Z,-4.19
2019-01-13T13:59:05.377Z,-4.06
2019-01-13T14:00:15.307Z,-3.94
2019-01-13T14:01:25.216Z,-4.05
2019-01-13T14:02:35.130Z,-3.9
2019-01-13T14:03:50.604Z,-4.01
2019-01-13T14:05:00.525Z,-3.98
2019-01-13T14:06:10.434Z,-3.94
2019-01-13T14:07:20.347Z,-4.02
2019-01-13T14:08:30.440Z,-4.06
2019-01-13T14:09:40.094Z,-4.08
2019-01-13T14:10:50.000Z,-4.04
2019-01-13T14:11:59.911Z,-4.12
2019-01-13T14:13:09.852Z,-4.06
2019-01-13T14:14:19.860Z,-4.05
2019-01-13T14:15:29.770Z,-4.02
2019-01-13T14:16:39.679Z,-4.19
2019-01-13T14:17:49.593Z,-4.24
2019-01-13T14:18:59.506Z,-4.38
2019-01-13T14:20:09.519Z,-4.44
2019-01-13T14:21:19.457Z,-4.49
2019-01-13T14:22:29.366Z,-4.52
2019-01-13T14:23:39.276Z,-4.52
2019-01-13T14:24:49.183Z,-4.55
2019-01-13T14:25:58.894Z,-4.51
2019-01-13T14:27:08.810Z,-4.49
2019-01-13T14:28:18.731Z,-4.38
2019-01-13T14:29:28.645Z,-4.3
2019-01-13T14:30:38.566Z,-4.16
2019-01-13T14:31:48.637Z,-4.17
2019-01-13T14:32:58.572Z,-4.2
2019-01-13T14:34:08.480Z,-4.13
2019-01-13T14:35:18.494Z,-4.16
2019-01-13T14:36:28.165Z,-4.13
2019-01-13T14:37:38.126Z,-4.14
2019-01-13T14:38:48.036Z,-4.13
2019-01-13T14:39:57.944Z,-4.22
2019-01-13T14:41:07.862Z,-4.31
2019-01-13T14:42:17.770Z,-4.38
2019-01-13T14:43:27.729Z,-4.44
2019-01-13T14:44:37.694Z,-4.45
2019-01-13T14:45:47.422Z,-4.58
2019-01-13T14:46:57.327Z,-4.52
2019-01-13T14:48:07.240Z,-4.59
2019-01-13T14:49:17.253Z,-4.61
2019-01-13T14:50:27.172Z,-4.59
2019-01-13T14:51:37.078Z,-4.62
2019-01-13T14:52:47.042Z,-4.73
2019-01-13T14:53:56.960Z,-4.73
2019-01-13T14:55:06.872Z,-4.84
2019-01-13T14:56:16.776Z,-4.9
2019-01-13T14:57:26.689Z,-4.9
2019-01-13T14:58:36.600Z,-5.02
2019-01-13T14:59:46.561Z,-5
2019-01-13T15:00:56.575Z,-5.06
2019-01-13T15:02:06.490Z,-5.12
2019-01-13T15:03:18.205Z,-5.13
2019-01-13T15:04:28.121Z,-5.09
2019-01-13T15:05:38.031Z,-5.01
2019-01-13T15:06:47.990Z,-4.97